Omaha, NE (68110)

11:28 PM CDT on September 01, 2014 (GMT -0500)
CarterLake.org | Change Station
CLOSE
Current Station
Personal Weather Station
Location: Carter Lake, IA
Elevation: 980 ft
Nearby Weather Stations

Elev 980 ft 41.29 °N, 95.92 °W | Updated 4 seconds ago

Clear
Clear
66.4 °F
Feels Like 66.4 °F
N
0.0
Wind Variable Wind from ESE
Gusts 0.0 mph

Today
High -- | Low -- °F
--% Chance of Precip.
Yesterday
High -- | Low -- °F
Precip. -- in
6:50 AM 7:56 PM
Waxing Crescent, 47% visible
Pressure 29.86 in
Visibility 10.0 miles
Clouds Clear
Dew Point 61 °F
Humidity 82%
Rainfall 0.00 in
Snow Depth Not available.
UV 0 out of 12
Pollen 6.20 out of 12
Ozone Good
PM2.5 Good
Flu Activity Not available.
METAR KOMA 020352Z 01005KT 10SM CLR 18/17 A2987 RMK AO2 SLP110 T01830167

More Conditions Fewer Conditions

Pressure 29.86 in
Visibility 10.0 miles
Clouds Clear
Dew Point 61 °F
Humidity 82%
Rainfall 0.00 in
Snow Depth Not available.
UV 0 out of 12
Pollen 6.20 out of 12
Ozone Good
PM2.5 Good
Flu Activity Not available.
METAR KOMA 020352Z 01005KT 10SM CLR 18/17 A2987 RMK AO2 SLP110 T01830167

More Conditions Fewer Conditions

10-Day Weather Forecast

Almanac

Astronomy

Sep. 01, 2014 Rise Set
Actual Time 6:50 AM CDT 7:56 PM CDT
Civil Twilight 6:21 AM CDT 8:24 PM CDT
Nautical Twilight 5:47 AM CDT 8:58 PM CDT
Astronomical Twilight 5:12 AM CDT 9:33 PM CDT
Moon 1:41 PM CDT (9/1) 11:54 PM CDT (9/1)
Length of Visible Light 14h 03m
Length of Day
13h 06m
Tomorrow will be 2m 39s shorter.
Waxing Crescent, 47% of the Moon is Illuminated
Sep 2
Waxing Crescent
Sep 2
First Quarter
Sep 8
Full
Sep 15
Last Quarter
Sep 24
New

Today's Extremes

State Highs State Lows

Community

WunderPhotos

Upload Photos

1,749,560 photos uploaded!

WunderBlogs® & News

Nearby

Air Quality

  Air Quality AQ Index Pollutant
Yesterday Good
OZONE
Yesterday Good
PM2.5
Current Good
PM2.5
Current Good
OZONE

Snow Depth

Station Depth Elevation
No new snow has been reported.

Earthquake Activity

City Distance Mag. Time & Date
No recent earthquake activity has been reported nearby.
Minimum magnitude displayed is 2.5.

Coastal Water Temperatures

Place Temperature
No Stations Reporting

Nearby Weather Stations